Date,TemperatureHighF,TemperatureAvgF,TemperatureLowF,DewpointHighF,DewpointAvgF,DewpointLowF,HumidityHigh,HumidityAvg,HumidityLow,PressureMaxIn,PressureMinIn,WindSpeedMaxMPH,WindSpeedAvgMPH,GustSpeedMaxMPH,PrecipitationSumIn
2013-1-1,35.6,25.2,13.1,30.1,19.0,9.4,89,77,67,30.08,29.86,5,2,16,0.01
2013-1-2,27.0,21.4,13.0,23.4,16.9,9.4,90,83,72,30.27,30.02,6,2,14,0.00
2013-1-3,30.1,22.5,13.2,26.8,19.0,9.8,94,86,76,30.26,30.00,5,1,12,0.00
2013-1-4,35.6,32.4,28.1,27.7,25.6,22.2,83,76,67,30.03,29.89,10,5,24,0.03
2013-1-5,38.0,33.5,28.4,29.8,27.4,25.2,89,78,68,30.31,30.04,6,2,15,0.06
2013-1-6,39.1,35.9,31.8,33.6,31.2,25.7,92,83,76,30.09,29.90,4,1,14,0.24
2013-1-7,36.2,28.8,19.8,33.3,24.1,17.4,91,83,69,30.43,30.09,5,1,11,0.01
2013-1-8,39.8,29.4,19.9,29.7,24.3,18.0,94,82,63,30.35,30.20,3,0,11,0.06
2013-1-9,49.1,32.8,18.9,38.2,27.3,17.0,97,81,64,30.33,29.97,8,2,22,0.11
2013-1-10,42.8,36.7,30.9,32.6,30.2,28.2,93,78,61,30.61,30.34,4,1,16,0.00
2013-1-11,44.0,38.3,31.7,41.0,35.0,29.9,97,88,78,30.46,29.92,2,0,9,0.22
2013-1-12,56.8,43.7,33.4,50.8,41.4,32.4,98,92,80,30.02,29.96,2,0,8,0.00
2013-1-13,68.8,53.9,41.2,58.4,50.0,39.7,98,88,69,29.99,29.75,7,1,19,0.00
2013-1-14,52.2,38.5,30.9,50.1,31.3,22.2,94,75,65,30.40,29.74,10,2,22,0.01
2013-1-15,35.1,31.1,28.3,25.3,23.0,21.0,80,72,57,30.42,30.21,3,1,8,0.00
2013-1-16,38.7,33.8,30.5,31.5,27.3,24.5,86,77,63,30.21,29.80,6,1,12,0.00
2013-1-17,37.7,27.7,18.9,31.1,20.8,13.8,88,75,66,30.22,29.85,5,2,18,0.00
2013-1-18,32.8,22.0,12.5,19.7,14.2,9.3,92,73,52,30.46,30.06,5,1,14,0.01
2013-1-19,49.3,42.5,33.0,33.9,27.4,19.2,74,55,42,30.06,29.61,5,2,15,0.02
2013-1-20,49.7,33.5,20.4,37.6,21.4,11.6,84,62,46,30.09,29.46,11,5,27,0.01
2013-1-21,24.1,21.1,16.8,16.4,12.0,9.2,76,67,61,30.08,29.89,5,2,13,0.00
2013-1-22,16.6,13.2,9.9,8.9,1.7,-2.8,76,60,46,30.22,29.92,8,4,18,0.00
2013-1-23,15.7,10.4,3.6,9.8,4.5,-0.2,86,77,60,30.27,30.15,4,1,11,0.00
2013-1-24,16.6,11.1,4.2,12.6,6.9,1.2,90,83,71,30.56,30.14,6,1,18,0.00
2013-1-25,19.5,14.2,9.2,13.0,9.4,5.4,86,81,71,30.54,30.13,2,1,7,0.00
2013-1-26,25.8,15.2,4.5,17.5,10.5,1.4,91,82,63,30.43,30.14,3,0,8,0.01
2013-1-27,28.6,22.3,16.4,19.9,17.0,13.5,92,80,64,30.59,30.42,3,0,8,0.00
2013-1-28,40.6,32.1,23.4,39.8,29.5,18.5,97,90,78,30.41,29.87,2,0,8,0.03
2013-1-29,43.4,38.6,33.0,43.0,38.0,32.2,99,98,97,30.08,29.76,3,0,10,0.49
2013-1-30,64.9,54.8,42.0,57.4,50.3,41.5,100,86,68,29.77,29.03,6,1,24,0.05
2013-1-31,54.4,33.5,24.2,51.4,24.7,13.4,94,71,49,29.71,29.02,10,6,25,0.17
2013-2-1,24.8,22.0,19.6,18.3,15.1,10.8,90,75,61,30.21,29.71,7,3,16,0.00
2013-2-2,23.9,19.7,13.7,16.2,12.3,8.7,86,73,63,30.22,30.01,5,2,14,0.00
2013-2-3,26.8,19.2,10.1,18.5,13.7,7.5,92,80,59,30.01,29.81,4,1,10,0.00
2013-2-4,25.0,21.5,18.2,15.2,13.1,10.4,80,70,54,29.98,29.88,6,3,16,0.00
2013-2-5,28.3,23.5,18.1,20.8,17.0,14.1,86,76,66,30.00,29.87,3,0,8,0.00
2013-2-6,29.1,24.6,16.8,25.6,17.8,11.1,88,76,55,30.42,29.89,6,2,15,0.00
2013-2-7,31.4,24.2,14.3,24.7,16.6,10.8,90,74,58,30.47,30.12,4,1,15,0.00
2013-2-8,34.8,30.2,20.2,32.4,26.5,18.3,94,86,71,30.12,29.80,3,0,11,0.00
2013-2-9,24.6,19.7,8.4,21.6,17.2,5.3,93,90,86,30.45,30.10,0,0,0,0.00
2013-2-10,33.7,16.8,1.7,30.4,14.3,-1.3,95,89,86,30.46,30.01,3,0,9,0.00
2013-2-11,51.7,37.1,29.1,43.9,32.7,27.9,98,85,70,30.02,29.57,10,3,26,1.26
2013-2-12,36.9,34.6,32.8,31.5,28.8,26.1,91,79,67,29.98,29.72,8,4,18,0.02
2013-2-13,38.6,32.0,22.9,27.6,25.7,20.4,90,78,58,29.93,29.74,2,0,6,0.04
2013-2-14,41.3,32.5,22.2,35.4,28.5,19.9,96,86,59,29.95,29.80,4,0,9,0.15
2013-2-15,39.5,35.5,27.3,36.1,26.5,18.3,96,70,55,30.08,29.79,8,4,24,0.00
2013-2-16,29.3,25.8,22.7,20.5,18.3,14.8,80,73,58,30.08,29.95,4,1,11,0.00
2013-2-17,23.7,17.9,13.9,19.4,12.9,7.0,89,81,70,30.21,29.92,6,2,19,0.00
2013-2-18,29.6,21.5,13.2,20.1,13.9,9.4,88,73,53,30.33,29.96,3,1,9,0.07
2013-2-19,45.8,33.4,26.1,37.3,27.1,19.6,94,78,63,29.96,29.56,8,2,18,0.12
2013-2-20,28.0,24.4,21.7,21.0,16.6,13.1,80,72,59,30.08,29.78,9,5,24,0.00
2013-2-21,23.9,20.0,15.8,18.6,14.9,9.5,88,80,73,30.45,30.05,6,2,17,0.00
2013-2-22,35.2,28.3,21.7,29.6,23.5,17.9,90,82,70,30.43,30.05,4,1,13,0.01
2013-2-23,40.5,35.3,30.2,34.6,31.0,26.4,94,84,76,30.05,29.89,3,0,10,0.15
2013-2-24,35.0,32.8,31.6,29.0,27.1,24.8,88,79,71,30.07,29.87,5,2,15,0.02
2013-2-25,38.7,34.4,30.1,31.0,28.8,26.4,88,80,67,30.26,30.08,4,1,9,0.00
2013-2-26,44.3,34.1,22.3,33.5,27.9,20.3,96,79,58,30.26,29.87,5,1,15,0.11
2013-2-27,37.2,34.6,33.3,36.2,33.4,32.1,96,95,94,29.86,29.59,3,0,12,0.81
2013-2-28,38.2,35.5,33.3,35.4,33.4,32.3,97,92,82,29.73,29.56,5,1,14,0.48
2013-3-1,34.5,31.7,28.7,33.2,28.0,23.5,95,86,77,29.94,29.73,4,2,11,0.03
2013-3-2,29.4,26.6,24.8,25.7,22.6,20.7,91,85,77,29.97,29.89,4,2,10,0.00
2013-3-3,27.1,25.0,23.1,22.5,20.1,-99.9,90,83,69,29.92,29.87,4,-3,13,0.01
2013-3-4,31.5,27.8,23.8,24.0,21.3,18.5,85,76,66,30.07,29.91,7,3,18,0.03
2013-3-5,33.6,28.4,21.8,26.0,23.0,19.3,90,80,71,30.12,30.01,4,1,11,0.02
2013-3-6,41.5,31.0,17.7,33.9,27.2,15.5,96,86,67,30.16,29.99,4,1,13,0.08
2013-3-7,38.2,34.7,32.6,35.5,30.7,27.1,95,85,72,30.30,30.15,3,0,10,0.00
2013-3-8,40.8,33.9,26.4,28.2,25.8,23.7,90,73,53,30.41,30.28,6,1,17,0.00
2013-3-9,47.3,32.9,22.6,34.6,27.5,21.1,97,82,51,30.44,30.26,4,1,10,0.00
2013-3-10,63.6,46.5,29.3,38.6,31.1,26.5,91,60,29,30.26,29.99,5,1,14,0.00
2013-3-11,56.4,50.9,44.1,45.5,36.5,32.3,73,58,45,30.01,29.69,6,1,16,0.00
2013-3-12,56.5,42.6,36.5,49.0,36.4,29.7,91,79,68,29.93,29.68,7,3,18,0.26
2013-3-13,42.5,34.0,25.9,32.5,26.4,19.7,87,74,56,29.96,29.83,9,3,23,0.02
2013-3-14,33.6,26.9,20.9,20.2,14.3,8.7,84,60,36,30.08,29.95,10,5,26,0.00
2013-3-15,39.7,31.9,24.2,33.2,24.8,15.9,92,75,58,30.07,29.73,8,2,24,0.04
2013-3-16,32.1,27.4,19.0,22.9,19.3,15.2,85,72,61,30.01,29.88,4,1,11,0.00
2013-3-17,30.3,24.9,17.7,24.9,18.4,11.4,92,77,52,30.38,30.00,5,1,12,0.01
2013-3-18,36.0,25.2,14.5,30.5,18.6,11.3,93,77,47,30.38,29.78,7,2,24,0.01
2013-3-19,37.1,32.9,27.3,35.3,28.6,21.7,96,85,63,29.85,29.70,9,2,25,0.10
2013-3-20,35.3,29.4,25.4,25.2,21.5,17.6,84,73,49,29.86,29.80,8,4,19,0.05
2013-3-21,32.6,27.4,21.3,26.2,19.8,14.7,86,73,52,29.85,29.73,6,2,16,0.00
2013-3-22,33.9,30.4,26.4,28.0,26.1,23.3,91,84,72,29.93,29.75,6,3,16,0.05
2013-3-23,39.4,34.0,29.3,27.8,25.9,23.6,86,73,56,30.02,29.91,6,2,17,0.08
2013-3-24,39.5,32.7,24.2,29.9,24.7,21.5,93,73,56,30.02,29.76,5,1,12,0.03
2013-3-25,41.9,35.8,30.4,31.5,27.8,25.5,89,73,60,29.76,29.63,4,1,13,0.00
2013-3-26,47.3,37.4,27.6,35.5,29.9,25.1,94,75,56,29.95,29.74,6,1,16,0.00
2013-3-27,47.8,38.5,33.4,36.8,32.1,27.5,95,79,55,30.07,29.93,7,3,16,0.07
2013-3-28,45.7,39.7,34.6,36.7,33.4,29.2,95,79,54,30.21,30.05,4,2,12,0.00
2013-3-29,51.5,42.7,37.9,36.4,33.0,28.0,85,70,42,30.22,30.13,4,2,15,0.00
2013-3-30,51.7,38.3,27.0,32.9,27.8,22.7,94,69,35,30.22,30.07,5,1,13,0.00
2013-3-31,59.3,41.6,29.3,44.5,33.4,25.6,94,76,37,30.07,29.63,6,1,17,0.07
2013-4-1,43.5,37.0,28.9,42.4,28.6,17.1,96,74,40,29.97,29.58,9,3,24,0.06
2013-4-2,35.7,29.6,24.9,28.8,22.8,19.1,89,76,59,30.12,29.95,7,3,21,0.05
2013-4-3,38.2,32.2,28.1,24.4,19.1,13.6,73,59,38,30.40,30.12,8,3,21,0.00
2013-4-4,56.2,36.9,23.3,24.9,21.5,17.3,86,58,22,30.38,29.93,6,1,12,0.00
2013-4-5,46.5,37.0,28.3,31.7,26.0,20.4,84,65,48,30.17,29.89,7,2,22,0.00
2013-4-6,48.1,36.7,24.0,26.2,21.3,17.0,85,56,32,30.35,30.07,4,1,11,0.00
2013-4-7,72.4,55.2,43.4,48.6,34.7,22.6,70,47,35,30.07,29.70,11,3,29,0.00
2013-4-8,59.6,47.8,41.7,44.3,38.3,34.3,93,71,50,30.14,29.76,4,1,10,0.02
2013-4-9,60.5,50.0,44.5,51.8,44.7,41.7,97,83,62,30.12,29.74,8,2,22,0.57
2013-4-10,46.7,43.2,40.1,45.9,42.1,39.1,97,96,93,30.07,29.89,4,1,13,0.54
2013-4-11,40.2,36.1,33.5,39.2,33.5,29.1,97,91,72,30.17,29.98,5,1,15,0.30
2013-4-12,52.8,41.9,35.3,49.0,38.7,33.0,98,89,74,29.99,29.56,8,3,18,0.80
2013-4-13,48.1,43.6,40.8,39.1,35.8,32.8,84,74,58,29.94,29.79,7,3,18,0.01
2013-4-14,45.6,40.3,32.7,34.8,30.7,27.5,89,69,52,30.22,29.94,6,2,15,0.01
2013-4-15,74.9,53.9,30.8,50.2,40.2,27.3,92,64,39,30.21,30.00,7,2,20,0.00
2013-4-16,66.7,58.4,45.8,59.2,51.0,35.5,95,77,64,30.25,29.96,7,2,18,0.12
2013-4-17,55.3,45.3,32.9,42.5,34.6,30.0,95,68,42,30.37,30.25,5,1,15,0.00
2013-4-18,78.7,61.6,40.1,59.9,50.1,35.2,85,67,48,30.27,29.71,7,3,20,0.00
2013-4-19,74.6,60.2,42.8,61.1,50.6,32.5,88,71,60,29.77,29.35,10,4,27,0.15
2013-4-20,43.9,40.0,34.2,34.3,28.4,21.7,79,63,50,30.43,29.74,9,4,24,0.01
2013-4-21,44.0,36.0,28.7,29.3,23.3,15.9,83,61,40,30.70,30.43,11,1,11,0.00
2013-4-22,60.0,45.1,28.4,33.4,28.1,20.8,85,55,30,30.64,30.36,17,2,17,0.00
2013-4-23,63.1,50.1,35.2,41.1,36.0,30.3,86,60,42,30.37,29.97,17,1,17,0.00
2013-4-24,69.9,52.3,40.6,56.3,45.6,35.9,94,79,57,30.00,29.58,21,2,21,0.14
2013-4-25,57.4,45.4,33.8,41.4,34.5,27.6,95,69,34,30.31,30.00,15,2,15,0.11
2013-4-26,53.8,43.9,34.1,41.8,34.5,26.6,98,72,41,30.48,30.32,14,1,0,0.01
2013-4-27,68.8,50.6,32.2,44.3,37.1,30.4,94,65,34,30.46,30.24,12,1,12,0.00
2013-4-28,76.3,57.5,39.4,50.8,41.5,36.4,92,62,25,30.24,30.03,16,2,18,0.09
2013-4-29,64.7,57.7,49.9,53.6,50.9,47.6,97,79,62,30.06,29.99,4,1,14,0.07
2013-4-30,73.9,62.7,53.8,59.6,53.8,50.9,97,75,51,30.22,30.05,4,1,12,0.02
2013-5-1,77.6,65.4,54.3,53.8,47.5,36.8,90,58,24,30.34,30.22,4,1,13,0.00
2013-5-2,78.2,61.7,44.3,49.0,43.6,35.4,89,56,22,30.41,30.26,4,1,12,0.00
2013-5-3,77.3,62.7,46.2,54.1,46.6,43.4,92,60,33,30.31,30.20,4,1,13,0.00
2013-5-4,74.2,60.6,44.5,50.9,45.3,41.2,95,62,34,30.29,30.14,5,1,15,0.00
2013-5-5,76.2,60.9,43.3,52.7,45.7,40.3,96,63,28,30.20,30.08,5,1,13,0.00
2013-5-6,75.5,56.9,42.5,47.3,43.6,36.9,95,67,26,30.16,30.01,3,0,10,0.00
2013-5-7,76.3,61.9,47.5,59.3,52.2,44.6,97,73,50,30.12,30.00,4,1,12,0.00
2013-5-8,70.1,61.0,51.2,62.2,56.7,49.8,98,87,68,30.05,29.92,3,0,12,0.12
2013-5-9,68.9,60.6,55.4,63.1,58.3,54.8,99,93,77,29.95,29.86,3,0,11,0.14
2013-5-10,72.9,59.3,48.7,66.0,57.5,48.2,100,94,71,29.95,29.72,3,0,13,0.83
2013-5-11,59.6,54.9,45.9,59.3,51.7,44.3,99,89,75,29.78,29.65,3,1,14,0.07
2013-5-12,52.6,45.6,39.2,48.5,38.1,33.5,98,76,50,29.92,29.68,6,2,22,0.03
2013-5-13,50.8,43.5,37.4,38.2,34.2,31.6,85,70,53,30.13,29.92,4,2,20,0.01
2013-5-14,58.8,45.3,30.3,42.3,35.0,29.3,98,71,36,30.18,29.98,3,0,12,0.00
2013-5-15,80.5,58.6,43.5,64.1,48.8,38.2,97,72,44,29.97,29.50,6,1,26,0.15
2013-5-16,76.4,61.2,45.6,54.3,45.7,37.9,97,62,28,30.00,29.72,5,1,18,0.00
2013-5-17,64.1,52.6,39.8,48.9,43.5,37.9,97,74,38,30.23,30.00,3,0,9,0.00
2013-5-18,70.6,55.3,39.6,52.2,45.7,38.8,98,73,45,30.27,30.15,3,0,11,0.00
2013-5-19,78.6,67.2,54.0,67.4,59.3,49.1,92,77,58,30.15,29.97,2,1,12,0.00
2013-5-20,81.5,71.5,60.9,73.0,64.7,58.4,93,80,62,30.03,29.84,3,0,11,0.00
2013-5-21,84.0,70.4,60.7,74.4,66.2,59.2,98,87,69,29.91,29.72,3,0,16,0.10
2013-5-22,82.7,69.6,58.9,78.5,67.0,58.6,100,92,68,29.79,29.62,2,0,12,0.19
2013-5-23,76.2,66.7,46.0,68.2,60.9,44.6,96,82,61,29.88,29.68,3,1,12,0.11
2013-5-24,51.6,44.0,39.6,44.8,40.7,38.3,97,89,64,30.19,29.89,4,1,15,0.41
2013-5-25,58.2,50.2,41.3,43.9,38.9,36.7,92,67,46,30.22,30.13,5,2,16,0.00
2013-5-26,62.0,52.8,42.3,44.1,38.8,35.0,86,61,38,30.21,30.12,4,1,14,0.00
2013-5-27,68.8,53.9,38.7,49.2,41.1,31.6,96,67,28,30.28,30.14,4,0,12,0.00
2013-5-28,62.9,55.6,47.2,62.0,53.5,44.4,98,93,71,30.16,29.94,1,0,9,0.83
2013-5-29,80.4,69.6,58.6,71.2,64.3,58.1,100,85,56,30.00,29.89,4,1,15,1.14
2013-5-30,86.5,73.9,60.3,72.6,65.3,59.7,99,78,43,30.09,30.00,3,1,12,0.00
2013-5-31,88.3,75.0,61.2,73.9,67.1,60.7,99,79,47,30.05,29.90,2,0,11,0.00
2013-6-1,86.5,74.2,64.1,73.9,67.9,62.6,99,82,58,29.95,29.74,6,1,17,0.58
2013-6-2,76.9,69.7,59.0,70.8,64.6,53.8,99,85,61,29.86,29.67,5,1,20,0.62
2013-6-3,63.9,57.0,51.2,53.8,47.6,42.6,87,71,49,30.01,29.86,3,1,15,0.00
2013-6-4,66.0,56.3,45.0,49.4,44.2,38.4,97,67,40,30.16,30.01,4,1,14,0.00
2013-6-5,67.9,57.8,47.9,60.4,47.4,42.0,90,70,47,30.23,30.09,3,1,12,0.00
2013-6-6,58.4,55.6,51.0,57.8,53.9,47.0,98,94,80,30.10,29.85,2,0,9,2.18
2013-6-7,60.7,58.0,55.8,60.4,57.6,55.5,99,98,95,29.85,29.79,2,0,6,0.12
2013-6-8,63.3,59.1,56.2,62.7,58.1,55.2,99,97,89,30.07,29.80,1,0,4,0.09
2013-6-9,72.7,62.6,51.7,63.8,56.8,50.6,98,83,60,30.19,30.07,3,0,9,0.00
2013-6-10,69.7,63.3,56.4,65.3,61.3,55.6,98,93,81,30.12,29.70,2,0,13,0.20
2013-6-11,67.5,64.1,60.7,64.4,61.6,55.8,99,92,78,29.83,29.63,4,1,14,0.20
2013-6-12,73.1,63.1,52.4,61.9,56.9,51.0,97,82,56,29.93,29.76,3,0,8,0.00
2013-6-13,64.3,61.4,56.8,61.0,59.2,55.1,98,93,84,29.78,29.51,3,0,10,1.00
2013-6-14,72.9,62.8,51.4,62.4,57.3,50.0,98,84,60,29.96,29.78,4,-11,12,0.00
2013-6-15,73.5,63.5,51.0,58.1,53.8,47.4,98,74,41,30.04,29.93,3,0,12,0.00
2013-6-16,74.1,65.8,58.7,69.2,62.4,55.8,99,89,80,29.94,29.69,2,0,8,0.35
2013-6-17,78.7,66.4,58.7,66.8,61.9,57.0,98,86,57,29.92,29.81,3,0,13,0.12
2013-6-18,67.7,60.0,51.0,59.1,53.7,48.7,98,81,54,30.02,29.89,3,1,10,0.02
2013-6-19,66.7,56.4,47.6,55.0,47.6,38.2,98,76,39,30.20,30.02,3,1,12,0.00
2013-6-20,73.9,58.0,42.4,60.0,48.1,41.6,98,74,36,30.26,30.20,3,0,11,0.00
2013-6-21,80.5,64.0,47.9,63.6,55.1,47.1,98,76,40,30.27,30.16,2,0,9,0.00
2013-6-22,82.9,70.5,57.2,74.7,66.2,56.1,98,87,59,30.17,29.99,2,0,8,0.00
2013-6-23,87.9,77.9,67.8,77.0,70.8,67.0,99,80,56,30.05,29.97,3,1,15,0.01
2013-6-24,87.2,77.4,67.3,75.3,68.5,64.9,96,76,54,30.01,29.91,3,1,13,0.00
2013-6-25,82.6,74.0,65.9,73.5,68.1,64.6,97,83,66,29.92,29.76,4,1,18,0.18
2013-6-26,83.2,73.0,65.8,74.9,68.9,64.5,98,87,65,29.81,29.75,2,0,9,0.00
2013-6-27,78.9,70.2,61.8,74.6,68.1,61.2,99,93,79,29.80,29.60,2,0,9,0.70
2013-6-28,67.3,64.9,62.3,67.0,64.3,61.2,99,98,96,29.60,29.50,2,0,7,0.28
2013-6-29,73.0,66.3,62.3,68.8,64.0,61.4,99,93,77,29.68,29.49,3,0,9,0.51
2013-6-30,75.6,68.2,60.2,69.9,64.4,59.1,98,88,73,29.92,29.68,4,0,10,0.00
2013-7-1,67.5,64.7,61.3,64.9,63.1,60.3,98,95,86,30.04,29.91,3,0,9,0.33
2013-7-2,75.6,66.5,61.1,71.2,64.6,60.2,99,94,83,30.10,30.01,3,0,10,0.09
2013-7-3,83.0,71.8,65.5,77.1,70.0,65.2,99,95,76,30.14,30.07,4,0,12,2.27
2013-7-4,83.5,73.7,68.7,75.7,71.3,68.4,100,93,67,30.16,30.08,2,0,8,0.09
2013-7-5,84.0,74.5,69.2,76.1,71.9,68.3,99,92,71,30.13,30.04,2,0,11,0.07
2013-7-6,84.3,74.3,66.3,74.4,69.4,65.4,98,86,59,30.13,30.00,2,0,7,0.01
2013-7-7,82.3,75.6,69.7,75.1,70.9,67.1,100,86,68,30.03,29.91,2,0,11,0.07
2013-7-8,82.4,74.0,69.9,75.2,70.6,66.7,99,89,73,30.03,29.95,2,0,8,0.24
2013-7-9,81.3,73.8,68.8,75.4,71.9,68.5,100,94,75,30.03,29.88,1,0,7,0.04
2013-7-10,85.4,76.2,69.0,77.4,71.8,65.7,99,87,66,29.88,29.67,3,1,16,0.01
2013-7-11,75.0,69.2,62.0,69.4,62.3,58.5,97,79,64,30.01,29.80,3,1,12,0.00
2013-7-12,75.1,66.5,60.1,68.9,63.0,59.5,99,89,71,30.17,30.01,2,0,9,0.00
2013-7-13,80.2,70.5,60.1,72.8,67.0,59.0,98,89,75,30.23,30.15,2,0,8,0.00
2013-7-14,86.4,75.1,65.8,77.0,70.8,64.9,99,87,65,30.29,30.22,2,0,8,0.00
2013-7-15,86.1,76.8,68.5,79.2,71.8,66.7,98,86,59,30.28,30.20,2,0,9,0.00
2013-7-16,87.4,75.9,65.4,76.3,69.6,64.8,99,83,57,30.27,30.18,3,0,11,0.00
2013-7-17,91.0,79.8,68.3,81.6,73.8,67.7,99,83,58,30.21,30.05,2,0,10,0.00
2013-7-18,87.2,79.4,73.2,79.9,75.8,72.6,98,89,75,30.08,29.92,2,0,8,0.05
2013-7-19,90.5,80.9,69.5,78.2,72.9,66.8,97,78,54,29.92,29.68,5,1,21,0.18
2013-7-20,77.8,71.2,67.3,71.6,68.1,63.3,99,91,61,29.87,29.68,2,0,10,0.57
2013-7-21,75.0,67.7,60.8,67.5,62.5,59.7,97,84,64,30.00,29.86,3,0,8,0.00
2013-7-22,79.3,68.5,58.0,71.5,64.0,57.4,99,86,64,29.99,29.76,3,0,10,0.79
2013-7-23,82.0,72.9,67.4,74.9,68.4,60.6,100,87,60,29.76,29.58,3,0,11,0.04
2013-7-24,68.9,61.9,52.6,60.6,54.5,50.2,96,77,62,30.04,29.68,4,1,12,0.00
2013-7-25,71.7,60.3,48.8,61.2,53.5,48.0,99,81,47,30.13,30.05,3,0,12,0.00
2013-7-26,74.6,62.4,51.1,62.6,56.0,50.6,99,82,55,30.13,30.01,4,0,9,0.00
2013-7-27,78.2,66.4,54.7,70.9,63.1,54.1,99,90,66,30.01,29.82,2,0,8,0.13
2013-7-28,71.5,66.9,59.8,68.5,64.5,57.8,100,92,76,29.97,29.80,3,0,10,0.09
2013-7-29,71.1,62.7,55.3,62.1,57.9,53.7,97,85,60,30.12,29.97,2,0,9,0.00
2013-7-30,74.1,64.9,58.2,65.3,59.8,55.7,95,84,69,30.19,30.12,4,0,10,0.00
2013-7-31,78.2,66.4,54.5,68.5,61.5,53.1,98,85,59,30.15,29.92,2,0,6,0.00
2013-8-1,75.3,68.2,61.9,72.2,65.0,61.3,99,90,69,29.92,29.76,2,0,12,0.37
2013-8-2,72.6,63.2,58.0,65.5,60.5,56.6,98,91,70,29.89,29.83,1,0,6,0.10
2013-8-3,74.5,66.4,60.7,63.1,60.9,55.8,98,84,53,29.90,29.81,3,1,11,0.26
2013-8-5,65.5,65.5,65.5,59.5,59.5,59.5,81,81,81,30.10,30.10,0,0,1,0.00
2013-8-6,76.9,69.7,59.3,64.4,60.4,55.3,98,74,49,30.06,29.98,1,0,6,0.00
2013-8-7,79.6,69.9,61.4,71.3,65.5,59.7,97,86,69,29.99,29.86,3,0,14,0.00
2013-8-8,81.2,72.1,66.7,74.7,69.5,65.2,99,92,74,29.95,29.89,3,0,8,0.12
2013-8-9,75.2,69.9,64.9,72.1,68.1,61.8,99,94,74,29.91,29.83,1,0,7,0.60
2013-8-10,71.1,64.8,54.9,62.3,57.8,52.8,97,80,55,30.09,29.91,4,1,17,0.00
2013-8-11,72.0,61.8,51.3,62.4,57.1,49.9,98,86,66,30.13,30.03,3,0,10,0.00
2013-8-12,75.8,66.0,59.4,67.7,62.1,57.9,97,88,63,30.05,29.85,2,0,5,0.00
2013-8-13,72.0,66.0,60.3,69.8,61.6,51.0,98,86,65,29.85,29.73,3,1,14,0.41
2013-8-14,67.2,60.2,53.7,58.7,53.1,50.0,95,78,57,30.07,29.83,3,1,11,0.01
2013-8-15,72.8,60.7,49.3,59.1,53.0,47.4,96,78,50,30.13,30.06,3,0,11,0.00
2013-8-16,73.6,61.8,50.9,63.1,56.4,49.0,97,84,58,30.20,30.11,2,0,7,0.00
2013-8-17,77.1,64.3,53.5,65.6,58.6,52.1,98,84,54,30.29,30.20,2,0,7,0.00
2013-8-18,77.9,66.2,56.9,67.1,60.9,55.8,98,85,54,30.25,30.10,1,0,6,0.00
2013-8-19,78.6,67.1,57.7,69.1,62.5,56.3,98,86,59,30.11,30.01,3,0,8,0.00
2013-8-20,81.4,68.3,57.0,68.6,61.9,55.6,98,82,53,30.12,30.04,2,0,8,0.00
2013-8-21,83.2,70.3,58.8,71.8,64.6,57.4,98,84,56,30.15,30.00,2,0,7,0.00
2013-8-22,82.5,71.5,61.3,74.0,67.1,59.9,98,87,68,30.02,29.87,4,0,13,0.28
2013-8-23,71.3,64.0,56.6,64.1,58.6,54.3,97,83,59,30.21,29.97,3,0,11,0.00
2013-8-24,73.5,61.5,51.7,61.0,54.4,50.3,98,80,49,30.35,30.21,3,0,9,0.00
2013-8-25,80.3,64.4,50.2,66.2,57.1,48.5,98,80,48,30.35,30.11,2,0,7,0.01
2013-8-26,76.8,69.0,64.1,71.9,67.1,62.1,98,94,82,30.14,29.90,2,0,7,0.71
2013-8-27,79.7,71.7,66.3,75.2,69.7,65.5,99,94,83,29.93,29.86,3,0,6,0.00
2013-8-28,80.7,73.1,67.9,75.5,70.4,66.1,98,92,80,29.93,29.83,2,0,9,0.10
2013-8-29,79.3,70.5,63.0,74.3,67.2,61.8,99,90,75,30.02,29.93,3,0,9,0.00
2013-8-30,82.2,70.7,60.9,75.4,67.0,59.8,99,89,58,29.99,29.74,1,0,7,0.00
2013-8-31,80.4,72.9,69.5,74.0,70.5,67.7,99,92,74,29.84,29.70,2,0,11,0.06
2013-9-1,79.2,72.5,67.2,73.1,69.3,66.2,98,90,75,29.84,29.73,2,0,9,0.12
2013-9-2,81.7,71.7,65.0,75.0,68.7,59.7,99,90,74,29.77,29.64,2,0,11,0.07
2013-9-3,67.1,64.5,62.2,61.1,59.2,57.6,88,83,74,29.92,29.76,3,1,11,0.00
2013-9-4,76.2,66.1,53.2,65.1,57.7,51.3,97,77,46,29.98,29.92,3,1,18,0.05
2013-9-5,65.4,59.5,48.4,62.4,51.4,43.0,95,76,52,30.22,29.95,3,1,14,0.00
2013-9-6,68.1,55.6,43.7,57.1,48.6,41.7,96,79,52,30.29,30.10,3,0,7,0.00
2013-9-7,64.4,57.8,50.7,63.2,56.1,49.0,97,94,89,30.10,29.86,1,0,5,0.13
2013-9-8,64.2,59.8,48.3,63.6,53.0,45.9,98,80,55,30.12,29.84,4,1,12,0.12
2013-9-9,74.8,58.8,43.7,64.2,53.5,42.1,98,84,56,30.17,29.96,2,0,10,0.00
2013-9-10,89.1,76.3,64.6,78.6,71.2,62.0,98,85,68,29.98,29.88,3,1,12,0.16
2013-9-11,90.2,80.4,74.6,78.0,73.5,67.8,94,80,58,30.01,29.86,2,0,12,0.00
2013-9-12,75.1,69.9,61.7,70.3,67.1,60.4,97,91,80,29.91,29.70,2,0,12,0.12
2013-9-13,61.6,55.6,51.2,60.4,54.1,50.1,96,95,90,30.01,29.73,2,0,10,0.62
2013-9-14,60.1,52.2,44.5,51.3,47.8,42.3,97,86,64,30.13,30.00,2,0,8,0.01
2013-9-15,67.1,54.9,42.9,58.7,50.3,41.7,97,85,65,30.17,30.04,3,0,13,0.05
2013-9-16,54.8,51.6,45.2,53.6,49.9,43.5,98,94,82,30.39,30.07,2,0,7,0.12
2013-9-17,62.0,49.3,37.9,50.2,43.6,36.6,98,82,53,30.51,30.31,2,0,7,0.00
2013-9-18,70.8,53.0,39.7,57.3,46.8,38.1,98,82,45,30.31,30.10,2,0,7,0.00
2013-9-19,75.6,59.8,46.2,64.3,54.1,44.8,98,83,53,30.13,30.01,2,0,7,0.00
2013-9-20,81.4,65.6,51.6,69.3,60.4,50.5,99,85,59,30.02,29.76,2,0,10,0.00
2013-9-21,70.0,64.0,54.9,64.2,61.4,53.9,98,92,77,29.77,29.62,3,0,12,0.80
2013-9-22,55.4,52.9,50.4,54.0,47.9,43.6,97,84,66,30.02,29.72,3,1,11,0.01
2013-9-23,55.8,51.1,42.7,48.0,44.7,40.4,92,79,63,30.16,30.02,3,1,11,0.00
2013-9-24,60.9,49.1,39.1,50.8,44.2,37.7,98,84,61,30.15,30.01,3,0,10,0.00
2013-9-25,64.8,51.5,39.9,55.8,46.5,38.6,98,84,52,30.03,29.96,3,0,9,0.00
2013-9-26,67.5,53.0,41.2,59.2,48.7,39.9,98,86,66,30.16,30.01,3,0,9,0.00
2013-9-27,63.9,54.0,45.0,57.6,50.6,43.4,98,89,75,30.27,30.16,3,0,9,0.00
2013-9-28,71.1,55.8,43.7,61.6,51.7,42.4,98,87,67,30.32,30.18,2,0,8,0.00
2013-9-29,73.1,57.7,45.3,60.5,52.3,44.0,98,84,56,30.19,29.99,2,0,7,0.00
2013-9-30,73.1,60.3,50.0,64.8,57.3,48.6,98,90,69,30.02,29.93,1,0,4,0.00
2013-10-1,74.1,64.3,57.0,63.2,58.9,54.4,98,84,56,30.02,29.90,2,0,8,0.00
2013-10-2,76.6,64.3,53.8,65.5,58.6,52.4,99,84,49,30.08,29.91,3,0,12,0.00
2013-10-3,70.6,58.8,46.1,60.4,53.3,44.7,98,84,45,30.14,30.02,1,0,5,0.01
2013-10-4,65.6,62.0,58.8,65.1,60.8,56.5,99,96,91,30.07,29.99,1,0,4,0.26
2013-10-5,62.7,60.7,58.4,61.2,59.3,56.8,98,95,87,30.10,30.04,2,0,7,0.03
2013-10-6,78.1,67.4,58.6,73.9,65.6,57.5,100,94,81,30.04,29.73,3,0,12,0.22
2013-10-7,73.0,61.9,51.9,67.2,57.3,48.5,96,85,76,30.03,29.61,4,1,19,0.50
2013-10-8,60.8,52.5,43.6,51.5,46.9,41.4,97,82,63,30.36,30.03,3,0,9,0.01
2013-10-9,66.0,50.0,37.7,55.7,45.5,36.4,98,86,55,30.42,30.29,2,0,9,0.00
2013-10-10,64.0,50.4,38.2,51.7,44.8,36.6,98,83,53,30.30,30.17,1,0,6,0.00
2013-10-11,65.6,51.4,41.9,56.8,47.5,40.6,99,87,63,30.17,30.12,2,0,9,0.00
2013-10-12,72.7,52.6,39.7,57.4,45.1,38.4,98,79,38,30.21,30.14,2,0,9,0.00
2013-10-13,71.2,58.2,45.7,62.6,55.0,44.1,98,90,71,30.28,30.20,2,0,8,0.05
2013-10-14,62.4,57.1,46.5,60.0,54.6,44.3,98,91,75,30.33,30.25,2,0,7,0.16
2013-10-15,68.0,52.8,40.0,59.9,49.8,38.7,99,90,70,30.30,29.97,2,0,7,0.00
2013-10-16,63.9,58.6,53.3,60.6,56.6,52.2,98,93,84,29.97,29.76,2,0,9,0.14
2013-10-17,63.2,55.6,48.8,55.3,51.9,47.4,98,88,64,29.88,29.66,2,0,7,0.36
2013-10-18,59.8,51.8,43.8,53.5,46.5,41.5,97,84,54,29.91,29.71,4,1,13,0.10
2013-10-19,62.9,52.9,43.8,51.1,46.6,41.6,97,80,54,29.91,29.63,3,1,13,0.06
2013-10-20,54.7,47.4,41.2,45.9,42.7,39.0,93,84,63,30.00,29.75,3,0,12,0.00
2013-10-21,66.6,53.3,43.3,50.6,44.4,41.3,97,75,41,30.00,29.80,4,0,16,0.01
2013-10-22,54.3,46.3,35.5,50.2,39.7,31.7,94,79,53,29.86,29.73,5,1,17,0.01
2013-10-23,47.1,39.4,33.3,41.4,36.3,31.0,96,89,74,29.84,29.70,2,0,8,0.04
2013-10-24,49.7,39.6,32.0,38.5,34.6,30.7,96,84,57,30.02,29.80,4,1,16,0.01
2013-10-25,48.8,41.4,34.9,42.0,37.8,33.6,97,88,68,30.19,30.02,2,0,12,0.00
2013-10-26,47.6,43.7,38.8,39.0,35.4,31.6,95,73,58,30.14,29.80,6,2,16,0.00
2013-10-27,49.9,43.3,38.1,39.9,37.5,34.7,92,80,58,30.08,29.82,3,1,11,0.00
2013-10-28,48.7,40.6,27.9,42.5,33.7,24.8,92,77,55,30.42,30.04,4,1,13,0.00
2013-10-29,46.9,33.7,23.5,33.7,27.9,21.5,97,81,54,30.50,30.33,3,0,9,0.00
2013-10-30,54.8,43.6,37.0,44.3,39.2,33.8,96,85,61,30.33,30.12,2,0,6,0.05
2013-10-31,63.9,53.0,36.8,62.3,51.4,35.0,99,95,84,30.12,29.40,2,0,11,0.48
2013-11-1,63.7,58.3,49.9,60.2,51.8,44.5,95,80,59,29.68,29.19,9,3,25,0.41
2013-11-2,51.9,46.5,38.2,48.8,44.7,36.4,97,93,82,30.01,29.61,3,0,13,0.47
2013-11-3,38.1,35.1,29.2,36.3,28.0,24.8,93,76,61,30.55,30.01,4,1,12,0.01
2013-11-4,43.6,33.4,22.6,29.6,24.1,20.5,95,71,41,30.69,30.48,3,0,10,0.00
2013-11-5,58.7,43.1,28.2,41.7,33.2,24.9,93,70,46,30.50,30.34,3,0,10,0.00
2013-11-6,65.3,55.4,42.4,55.5,46.1,37.7,91,72,56,30.35,29.80,4,1,14,0.02
2013-11-7,59.1,46.0,40.1,56.0,39.9,32.8,95,80,61,29.99,29.79,5,1,14,0.26
2013-11-8,44.6,39.7,36.5,36.7,32.2,28.1,89,75,55,30.24,29.95,6,2,19,0.03
2013-11-9,50.1,42.6,34.9,43.2,34.2,29.6,89,73,57,30.23,29.78,3,1,13,0.01
2013-11-10,50.1,44.6,41.2,43.4,38.0,33.0,93,78,65,30.16,29.78,8,3,24,0.07
2013-11-11,47.3,38.3,30.3,38.6,33.4,27.3,95,83,61,30.17,29.93,7,1,17,0.32
2013-11-12,34.2,29.8,26.5,29.5,24.6,21.3,93,81,67,30.41,30.12,6,2,18,0.09
2013-11-13,38.8,30.4,20.0,28.5,22.4,15.8,90,72,58,30.45,30.10,6,2,14,0.00
2013-11-14,51.3,41.9,34.3,31.8,23.6,18.2,64,49,31,30.13,30.02,6,2,15,0.00
2013-11-15,53.3,42.4,32.9,34.6,28.7,22.9,80,60,36,30.13,30.06,3,0,13,0.00
2013-11-16,59.2,44.4,34.2,41.6,36.0,30.1,91,74,47,30.26,30.06,3,0,8,0.00
2013-11-17,61.8,53.6,40.5,56.2,50.1,38.1,97,88,80,30.06,29.38,9,1,23,0.32
2013-11-18,56.0,48.5,37.8,51.0,38.4,29.2,90,68,58,29.89,29.36,10,6,27,0.01
2013-11-19,38.6,35.8,28.4,31.6,28.2,24.2,84,74,64,30.47,29.89,7,2,20,0.01
2013-11-20,38.8,30.2,22.2,25.6,22.8,20.0,92,75,49,30.63,30.47,3,0,9,0.00
2013-11-21,46.7,37.4,25.2,38.1,28.4,20.3,86,71,52,30.50,30.28,4,1,12,0.00
2013-11-22,49.4,43.3,34.8,48.3,41.0,29.6,96,91,80,30.28,29.99,7,1,20,0.18
2013-11-23,37.4,30.0,20.0,29.4,23.9,12.6,90,78,51,30.21,30.01,9,3,20,0.05
2013-11-24,25.3,21.6,18.2,18.5,15.8,12.5,90,79,62,30.43,30.18,7,3,18,0.04
2013-11-25,35.6,29.1,19.6,24.3,17.0,14.0,83,62,41,30.43,30.13,5,2,17,0.00
2013-11-26,38.0,35.0,33.0,32.3,29.1,24.2,94,80,64,30.18,29.83,4,1,12,0.34
2013-11-27,35.7,31.8,24.2,34.4,29.3,20.2,96,90,76,29.91,29.62,5,2,19,0.40
2013-11-28,29.1,24.1,19.5,21.0,18.8,16.0,89,80,64,30.46,29.91,5,2,14,0.00
2013-11-29,30.1,22.6,11.4,23.0,17.7,9.3,93,82,61,30.78,30.46,4,0,13,0.01
2013-11-30,32.8,22.7,8.2,24.9,17.0,5.9,92,80,61,30.78,30.23,4,0,12,0.00
2013-12-1,41.1,33.3,27.4,35.2,29.7,23.9,94,87,67,30.23,29.99,2,0,7,0.03
2013-12-2,40.1,35.3,31.7,38.7,33.7,29.9,96,94,90,29.99,29.87,0,0,3,0.00
2013-12-3,40.4,32.9,27.7,32.4,29.6,26.5,96,88,66,30.04,29.93,3,0,7,0.00
2013-12-4,46.7,35.6,29.6,40.6,33.8,28.6,97,93,78,30.06,29.94,3,0,7,0.00
2013-12-6,37.7,35.4,33.3,33.0,28.9,25.5,93,77,69,30.26,30.12,4,1,11,0.01
2013-12-7,33.7,30.1,26.9,27.6,21.6,16.7,83,71,55,30.58,30.25,6,2,15,0.00
2013-12-8,30.5,26.7,20.4,24.6,17.2,14.0,88,68,54,30.61,30.25,4,1,15,0.00
2013-12-9,42.4,35.4,27.8,37.8,31.0,24.4,95,84,70,30.25,29.86,8,3,19,0.02
2013-12-10,35.6,27.2,19.8,27.1,18.9,13.1,89,71,58,30.08,29.93,7,3,22,0.01
2013-12-11,26.5,22.1,14.0,21.7,15.4,9.5,87,75,62,30.30,30.08,6,2,18,0.00
2013-12-12,20.9,17.3,10.9,15.9,11.9,6.5,87,79,61,30.36,30.06,6,2,18,0.02
2013-12-13,26.0,21.2,16.6,21.7,15.3,9.8,88,78,67,30.43,30.05,7,2,15,0.01
2013-12-14,25.6,15.7,10.3,24.0,12.0,4.7,94,85,76,30.50,29.80,3,1,14,0.01
2013-12-15,26.9,23.6,19.5,24.9,20.6,14.3,94,88,74,29.87,29.64,7,2,17,0.00
2013-12-16,25.5,16.3,0.8,18.0,11.3,-2.9,85,80,69,30.23,29.87,8,2,18,0.00
2013-12-17,29.7,18.6,-1.9,28.2,15.9,-5.5,95,89,84,30.20,29.93,3,0,8,0.01
2013-12-18,34.3,29.5,25.9,26.7,25.1,23.6,92,84,71,30.09,29.95,5,1,14,0.00
2013-12-19,43.3,33.6,23.2,34.0,28.0,19.9,91,80,63,30.06,29.92,6,1,14,0.00
2013-12-20,42.7,36.7,34.2,41.6,35.3,31.9,97,95,90,30.03,29.80,1,0,4,0.11
2013-12-21,50.6,37.8,32.6,50.3,37.1,31.8,99,97,96,29.92,29.73,3,0,14,0.84
2013-12-22,44.1,36.4,32.6,43.6,35.5,31.8,99,97,90,29.99,29.60,6,1,15,0.43
2013-12-23,42.0,39.4,37.9,39.3,37.0,34.0,95,91,83,30.11,29.96,4,1,13,0.01
2013-12-24,28.9,22.5,12.8,25.2,19.0,9.2,91,86,81,30.53,30.24,4,1,17,0.08
2013-12-25,24.2,15.5,5.1,19.5,11.1,2.3,92,82,71,30.58,30.25,3,0,8,0.00
2013-12-26,34.4,29.0,24.2,29.8,23.2,17.5,88,79,70,30.30,30.08,6,1,18,0.01
2013-12-27,34.2,28.0,22.5,29.3,23.2,15.4,92,82,71,30.32,30.11,4,1,11,0.00
2013-12-28,44.3,36.5,24.0,36.6,31.1,22.3,94,81,69,30.11,29.96,5,1,14,0.00
2013-12-29,44.7,37.0,28.0,41.6,34.0,26.2,96,89,78,29.96,29.63,4,0,19,0.15
2013-12-30,32.0,20.5,16.2,28.6,15.5,11.6,87,81,74,30.26,29.77,6,2,15,0.00
2013-12-31,26.5,20.0,16.1,20.9,12.9,6.0,84,74,61,30.26,29.99,9,2,20,0.00
2014-1-1,23.0,19.2,16.2,15.8,12.0,9.3,87,73,62,30.43,30.26,5,2,11,0.00
2014-1-2,17.7,14.0,9.1,15.0,11.4,6.5,91,89,87,30.35,30.03,4,2,15,0.17